地図

経路データ

SID SEASON NUMBER BASIN SUBBASIN NAME ISO_TIME NATURE LAT LON WMO_WIND WMO_PRES WMO_AGENCY TRACK_TYPE DIST2LAND LANDFALL IFLAG USA_AGENCY USA_ATCF_ID USA_LAT USA_LON USA_RECORD USA_STATUS USA_WIND USA_PRES USA_SSHS USA_R34_NE USA_R34_SE USA_R34_SW USA_R34_NW USA_R50_NE USA_R50_SE USA_R50_SW USA_R50_NW USA_R64_NE USA_R64_SE USA_R64_SW USA_R64_NW USA_POCI USA_ROCI USA_RMW USA_EYE TOKYO_LAT TOKYO_LON TOKYO_GRADE TOKYO_WIND TOKYO_PRES TOKYO_R50_DIR TOKYO_R50_LONG TOKYO_R50_SHORT TOKYO_R30_DIR TOKYO_R30_LONG TOKYO_R30_SHORT TOKYO_LAND CMA_LAT CMA_LON CMA_CAT CMA_WIND CMA_PRES HKO_LAT HKO_LON HKO_CAT HKO_WIND HKO_PRES NEWDELHI_LAT NEWDELHI_LON NEWDELHI_GRADE NEWDELHI_WIND NEWDELHI_PRES NEWDELHI_CI NEWDELHI_DP NEWDELHI_POCI REUNION_LAT REUNION_LON REUNION_TYPE REUNION_WIND REUNION_PRES REUNION_TNUM REUNION_CI REUNION_RMW REUNION_R34_NE REUNION_R34_SE REUNION_R34_SW REUNION_R34_NW REUNION_R50_NE REUNION_R50_SE REUNION_R50_SW REUNION_R50_NW REUNION_R64_NE REUNION_R64_SE REUNION_R64_SW REUNION_R64_NW BOM_LAT BOM_LON BOM_TYPE BOM_WIND BOM_PRES BOM_TNUM BOM_CI BOM_RMW BOM_R34_NE BOM_R34_SE BOM_R34_SW BOM_R34_NW BOM_R50_NE BOM_R50_SE BOM_R50_SW BOM_R50_NW BOM_R64_NE BOM_R64_SE BOM_R64_SW BOM_R64_NW BOM_ROCI BOM_POCI BOM_EYE BOM_POS_METHOD BOM_PRES_METHOD NADI_LAT NADI_LON NADI_CAT NADI_WIND NADI_PRES WELLINGTON_LAT WELLINGTON_LON WELLINGTON_WIND WELLINGTON_PRES DS824_LAT DS824_LON DS824_STAGE DS824_WIND DS824_PRES TD9636_LAT TD9636_LON TD9636_STAGE TD9636_WIND TD9636_PRES TD9635_LAT TD9635_LON TD9635_WIND TD9635_PRES TD9635_ROCI NEUMANN_LAT NEUMANN_LON NEUMANN_CLASS NEUMANN_WIND NEUMANN_PRES MLC_LAT MLC_LON MLC_CLASS MLC_WIND MLC_PRES USA_GUST BOM_GUST BOM_GUST_PER REUNION_GUST REUNION_GUST_PER USA_SEAHGT USA_SEARAD_NE USA_SEARAD_SE USA_SEARAD_SW USA_SEARAD_NW STORM_SPEED STORM_DIR
1892112S10424 1892 15 SI MM NOT_NAMED 1892-04-20 18:00:00 NR -10.3000 63.6000 main 1266 1235 __________O___ -1 -10.3000 63.6000 7 8 248
1892112S10424 1892 15 SI MM NOT_NAMED 1892-04-20 21:00:00 NR -10.4514 63.2171 main 1225 1195 __________P___ -1 -10.4514 63.2171 7 8 248
1892112S10424 1892 15 SI MM NOT_NAMED 1892-04-21 00:00:00 NR -10.6122 62.8073 main 1195 1156 __________P___ -1 -10.6122 62.8073 7 9 248
1892112S10424 1892 15 SI MM NOT_NAMED 1892-04-21 03:00:00 NR -10.7919 62.3439 main 1151 1109 __________P___ -1 -10.7919 62.3439 7 11 249
1892112S10424 1892 15 SI MM NOT_NAMED 1892-04-21 06:00:00 NR -11.0000 61.8000 main 1109 1064 __________O___ -1 -11.0000 61.8000 7 12 249
1892112S10424 1892 15 SI MM NOT_NAMED 1892-04-21 09:00:00 NR -11.2426 61.1598 main 1064 1008 __________P___ -1 -11.2426 61.1598 7 14 249
1892112S10424 1892 15 SI MM NOT_NAMED 1892-04-21 12:00:00 NR -11.5131 60.4526 main 1008 955 __________P___ -1 -11.5131 60.4526 7 15 248
1892112S10424 1892 15 SI MM NOT_NAMED 1892-04-21 15:00:00 NR -11.8019 59.7190 main 953 906 __________P___ -1 -11.8019 59.7190 7 15 248
1892112S10424 1892 15 SI MM NOT_NAMED 1892-04-21 18:00:00 NR -12.1000 59.0000 main 906 864 __________O___ -1 -12.1000 59.0000 7 15 247
1892112S10424 1892 15 SI MM NOT_NAMED 1892-04-21 21:00:00 NR -12.3724 58.3126 main 864 830 __________P___ -1 -12.3724 58.3126 7 14 247
1892112S10424 1892 15 SI MM NOT_NAMED 1892-04-22 00:00:00 NR -12.6550 57.6522 main 826 757 __________P___ -1 -12.6550 57.6522 7 14 245
1892112S10424 1892 15 SI MM NOT_NAMED 1892-04-22 03:00:00 NR -12.9601 57.0407 main 743 680 __________P___ -1 -12.9601 57.0407 7 13 240
1892112S10424 1892 15 SI MM NOT_NAMED 1892-04-22 06:00:00 NR -13.3000 56.5000 main 680 619 __________O___ -1 -13.3000 56.5000 7 12 236
1892112S10424 1892 15 SI MM NOT_NAMED 1892-04-22 09:00:00 NR -13.6603 55.9844 main 615 565 __________P___ -1 -13.6603 55.9844 7 12 231
1892112S10424 1892 15 SI MM NOT_NAMED 1892-04-22 12:00:00 NR -14.0597 55.5482 main 552 511 __________P___ -1 -14.0597 55.5482 7 11 222
1892112S10424 1892 15 SI MM NOT_NAMED 1892-04-22 15:00:00 NR -14.5042 55.2129 main 511 483 __________P___ -1 -14.5042 55.2129 7 11 209
1892112S10424 1892 15 SI MM NOT_NAMED 1892-04-22 18:00:00 NR -15.0000 55.0000 main 483 471 __________O___ -1 -15.0000 55.0000 7 11 196
1892112S10424 1892 15 SI MM NOT_NAMED 1892-04-22 21:00:00 NR -15.5979 54.8945 main 472 472 __________P___ -1 -15.5979 54.8945 7 12 184
1892112S10424 1892 15 SI MM NOT_NAMED 1892-04-23 00:00:00 NR -16.2369 54.9114 main 479 453 __________P___ -1 -16.2369 54.9114 7 13 174
1892112S10424 1892 15 SI MM NOT_NAMED 1892-04-23 03:00:00 NR -16.8574 55.0228 main 444 387 __________P___ -1 -16.8574 55.0228 7 12 167
1892112S10424 1892 15 SI MM NOT_NAMED 1892-04-23 06:00:00 NR -17.4000 55.2000 main 387 339 __________O___ -1 -17.4000 55.2000 7 10 159
1892112S10424 1892 15 SI MM NOT_NAMED 1892-04-23 09:00:00 NR -17.7863 55.3925 main 339 299 __________P___ -1 -17.7863 55.3925 7 8 149
1892112S10424 1892 15 SI MM NOT_NAMED 1892-04-23 12:00:00 NR -18.0901 55.6401 main 299 262 __________P___ -1 -18.0901 55.6401 7 8 138
1892112S10424 1892 15 SI MM NOT_NAMED 1892-04-23 15:00:00 NR -18.3488 55.9176 main 262 216 __________P___ -1 -18.3488 55.9176 7 7 134
1892112S10424 1892 15 SI MM NOT_NAMED 1892-04-23 18:00:00 NR -18.6000 56.2000 main 216 192 __________O___ -1 -18.6000 56.2000 7 6 141
1892112S10424 1892 15 SI MM NOT_NAMED 1892-04-23 21:00:00 NR -18.8452 56.3399 main 192 153 __________P___ -1 -18.8452 56.3399 7 6 151
1892112S10424 1892 15 SI MM NOT_NAMED 1892-04-24 00:00:00 NR -19.0991 56.4961 main 153 114 __________P___ -1 -19.0991 56.4961 7 7 145
1892112S10424 1892 15 SI MM NOT_NAMED 1892-04-24 03:00:00 NR -19.4036 56.7539 main 107 45 __________P___ -1 -19.4036 56.7539 7 10 137
1892112S10424 1892 15 SI MM NOT_NAMED 1892-04-24 06:00:00 NR -19.8000 57.2000 main 45 0 __________O___ -1 -19.8000 57.2000 7 15 131
1892112S10424 1892 15 SI MM NOT_NAMED 1892-04-24 09:00:00 NR -20.3532 57.9220 main 15 15 __________P___ -1 -20.3532 57.9220 7 20 128
1892112S10424 1892 15 SI MM NOT_NAMED 1892-04-24 12:00:00 NR -20.9917 58.8420 main 127 127 __________P___ -1 -20.9917 58.8420 7 23 125
1892112S10424 1892 15 SI MM NOT_NAMED 1892-04-24 15:00:00 NR -21.6589 59.8916 main 264 264 __________P___ -1 -21.6589 59.8916 7 24 123
1892112S10424 1892 15 SI MM NOT_NAMED 1892-04-24 18:00:00 NR -22.3000 61.0000 main 396 396 __________O___ -1 -22.3000 61.0000 7 24 121
1892112S10424 1892 15 SI MM NOT_NAMED 1892-04-24 21:00:00 NR -22.8735 62.1077 main 527 527 __________P___ -1 -22.8735 62.1077 7 23 118
1892112S10424 1892 15 SI MM NOT_NAMED 1892-04-25 00:00:00 NR -23.3861 63.2069 main 653 653 __________P___ -1 -23.3861 63.2069 7 22 116
1892112S10424 1892 15 SI MM NOT_NAMED 1892-04-25 03:00:00 NR -23.8557 64.3026 main 778 778 __________P___ -1 -23.8557 64.3026 7 22 114
1892112S10424 1892 15 SI MM NOT_NAMED 1892-04-25 06:00:00 NR -24.3000 65.4000 main 897 __________O___ -1 -24.3000 65.4000 7 22 114

IBTrACS Databaseについて

本データベースは、米国NOAAが公開する1842年以降の世界の熱帯低気圧のベストトラックデータアーカイブInternational Best Track Archive for Climate Stewardship (IBTrACS)を、ウェブで閲覧しやすい形式に変換したものです。

最終更新日:2021-10-19